Time;durP1;ratioP1;P1;durP2;ratioP2;P2;SDS_P1;SDS_P2;PMS_P1;PMS_P2;Temp;Humidity;BMP_temperature;BMP_pressure;BME280_temperature;BME280_humidity;BME280_pressure;Samples;Min_cycle;Max_cycle;Signal;HPM_P1;HPM_P2
2022/05/26 00:01:22;;;;;;;7.43;1.70;;;;;;;17.03;89.58;101308.56;5027879;28;20050;-77
2022/05/26 00:03:49;;;;;;;5.93;1.73;;;;;;;16.82;91.95;101317.31;5042255;28;20041;-77
2022/05/26 00:06:19;;;;;;;5.03;2.17;;;;;;;16.98;91.25;101298.66;5034197;28;20501;-78
2022/05/26 00:08:46;;;;;;;3.30;1.58;;;;;;;16.92;93.31;101310.75;5029538;28;20041;-77
2022/05/26 00:11:22;;;;;;;2.42;1.13;;;;;;;16.82;95.18;101315.31;5038217;28;20129;-78
2022/05/26 00:13:48;;;;;;;1.70;0.85;;;;;;;16.84;95.08;101304.50;5039442;28;20051;-79
2022/05/26 00:16:16;;;;;;;5.85;2.20;;;;;;;16.93;94.03;101295.56;5038646;28;20053;-78
2022/05/26 00:18:43;;;;;;;3.05;1.40;;;;;;;16.58;97.74;101308.16;5038458;28;20084;-79
2022/05/26 00:21:10;;;;;;;3.78;2.20;;;;;;;16.55;98.93;101314.56;5043271;28;20068;-78
2022/05/26 00:23:36;;;;;;;4.47;1.35;;;;;;;16.67;98.26;101319.56;5042819;28;20148;-78
2022/05/26 00:26:04;;;;;;;6.07;2.25;;;;;;;16.77;97.49;101306.63;5039035;28;20049;-80
2022/05/26 00:28:31;;;;;;;9.25;2.70;;;;;;;16.79;97.34;101307.78;5043209;28;20196;-78
2022/05/26 00:30:58;;;;;;;3.67;1.67;;;;;;;16.57;99.05;101326.09;5042418;28;20084;-78
2022/05/26 00:33:25;;;;;;;1.77;1.15;;;;;;;16.65;98.85;101319.22;5036619;28;20053;-78
2022/05/26 00:35:52;;;;;;;1.23;0.93;;;;;;;16.52;98.81;101309.03;5040745;28;20579;-78
2022/05/26 00:38:18;;;;;;;6.00;1.88;;;;;;;16.76;98.24;101319.81;5042888;28;20172;-79
2022/05/26 00:40:47;;;;;;;5.22;1.92;;;;;;;16.74;97.93;101325.03;5039876;28;20048;-78
2022/05/26 00:43:14;;;;;;;3.40;1.73;;;;;;;16.66;98.52;101326.38;5039965;28;20646;-78
2022/05/26 00:46:08;;;;;;;1.15;0.60;;;;;;;16.64;98.83;101325.22;5046273;28;20064;-78
2022/05/26 00:48:42;;;;;;;3.22;1.25;;;;;;;16.60;98.71;101318.91;5047458;28;20103;-78
2022/05/26 00:51:10;;;;;;;1.80;1.00;;;;;;;16.63;98.87;101316.03;5035949;28;20045;-78
2022/05/26 00:53:46;;;;;;;5.47;2.10;;;;;;;16.70;98.05;101315.91;5039114;28;20048;-78
2022/05/26 00:56:24;;;;;;;5.07;2.20;;;;;;;16.69;97.62;101321.94;5049078;28;20055;-79
2022/05/26 00:58:56;;;;;;;5.80;2.25;;;;;;;16.73;96.66;101314.25;5040474;28;20131;-78
2022/05/26 01:01:25;;;;;;;2.53;1.27;;;;;;;16.60;97.88;101310.53;5037356;28;20045;-78
2022/05/26 01:03:57;;;;;;;3.38;1.17;;;;;;;16.57;97.90;101311.38;5039079;28;20079;-78
2022/05/26 01:06:33;;;;;;;3.90;1.67;;;;;;;16.58;97.70;101322.13;5045191;28;20094;-78
2022/05/26 01:09:05;;;;;;;1.98;1.20;;;;;;;16.56;98.02;101316.16;5037836;28;20079;-79
2022/05/26 01:11:35;;;;;;;6.75;2.10;;;;;;;16.66;97.34;101319.97;5035537;28;20047;-78
2022/05/26 01:14:08;;;;;;;2.15;1.40;;;;;;;16.62;96.92;101311.66;5039359;28;20818;-79
2022/05/26 01:16:38;;;;;;;7.68;1.83;;;;;;;16.63;97.73;101309.66;5039254;28;20379;-77
2022/05/26 01:19:45;;;;;;;4.03;2.30;;;;;;;16.62;97.16;101324.84;5036718;28;20053;-79
2022/05/26 01:22:31;;;;;;;5.30;1.70;;;;;;;16.60;97.60;101318.91;5043595;28;20649;-78
2022/05/26 01:25:26;;;;;;;8.00;2.47;;;;;;;16.62;97.18;101327.63;5031122;28;20131;-79
2022/05/26 01:28:18;;;;;;;5.43;1.40;;;;;;;16.63;97.90;101306.84;5040981;28;20053;-78
2022/05/26 01:30:55;;;;;;;3.97;1.35;;;;;;;16.63;97.91;101315.22;5036186;28;20513;-78
2022/05/26 01:34:03;;;;;;;4.80;2.90;;;;;;;16.68;97.75;101311.97;5047430;28;20055;-78
2022/05/26 01:36:50;;;;;;;6.95;2.22;;;;;;;16.61;98.71;101318.44;5038290;28;20049;-78
2022/05/26 01:39:42;;;;;;;3.35;2.00;;;;;;;16.60;98.52;101318.91;5040316;28;20131;-77
2022/05/26 01:42:27;;;;;;;3.38;1.92;;;;;;;16.66;99.33;101317.19;5024317;28;20045;-79
2022/05/26 01:45:05;;;;;;;2.55;1.55;;;;;;;16.61;100.00;101304.47;5035386;28;20417;-77
2022/05/26 01:47:49;;;;;;;6.72;3.17;;;;;;;16.60;100.00;101304.94;5042833;28;20488;-78
2022/05/26 01:50:25;;;;;;;1.98;1.30;;;;;;;16.53;100.00;101305.81;5034564;28;20056;-78
2022/05/26 01:52:55;;;;;;;6.07;2.70;;;;;;;16.52;100.00;101311.81;5034745;28;20494;-78
2022/05/26 01:55:31;;;;;;;2.92;1.90;;;;;;;16.57;100.00;101308.56;5041856;28;20463;-79
2022/05/26 01:58:08;;;;;;;3.47;2.13;;;;;;;16.56;100.00;101310.56;5040562;28;20057;-79
2022/05/26 02:00:36;;;;;;;5.32;2.25;;;;;;;16.49;100.00;101312.66;5043185;28;20049;-79
2022/05/26 02:03:07;;;;;;;3.78;1.65;;;;;;;16.51;100.00;101313.06;5040585;28;20052;-78
2022/05/26 02:05:45;;;;;;;2.83;1.85;;;;;;;16.58;100.00;101316.53;5039762;28;20572;-79
2022/05/26 02:08:21;;;;;;;8.35;2.17;;;;;;;16.57;100.00;101316.94;5047863;28;20141;-77
2022/05/26 02:11:10;;;;;;;2.83;1.15;;;;;;;16.64;100.00;101322.41;5039381;28;20049;-78
2022/05/26 02:13:57;;;;;;;7.65;2.90;;;;;;;16.52;100.00;101323.81;5037378;28;20050;-78
2022/05/26 02:16:51;;;;;;;3.88;1.88;;;;;;;16.55;100.00;101324.94;5032824;28;20051;-78
2022/05/26 02:19:45;;;;;;;4.47;2.67;;;;;;;16.46;100.00;101338.66;5029289;28;20049;-78
2022/05/26 02:22:28;;;;;;;3.90;1.50;;;;;;;16.55;100.00;101331.34;5040687;28;20103;-78
2022/05/26 02:25:06;;;;;;;3.33;1.50;;;;;;;16.50;100.00;101323.41;5035131;28;20697;-77
2022/05/26 02:27:35;;;;;;;1.38;0.98;;;;;;;16.51;100.00;101341.78;5043455;28;20431;-79
2022/05/26 02:30:04;;;;;;;7.60;3.40;;;;;;;16.59;100.00;101328.47;5036159;28;20132;-78
2022/05/26 02:32:43;;;;;;;2.28;1.73;;;;;;;16.50;100.00;101331.03;5043093;28;20067;-76
2022/05/26 02:35:23;;;;;;;13.10;3.50;;;;;;;16.56;100.00;101337.69;5035776;28;20049;-77
2022/05/26 02:37:55;;;;;;;2.88;1.20;;;;;;;16.43;100.00;101329.13;5046331;28;20052;-76
2022/05/26 02:40:22;;;;;;;1.88;1.45;;;;;;;16.45;100.00;101340.66;5041159;28;20049;-77
2022/05/26 02:42:53;;;;;;;9.93;3.22;;;;;;;16.33;100.00;101340.44;5034905;28;20049;-77
2022/05/26 02:45:33;;;;;;;4.70;2.15;;;;;;;16.35;100.00;101349.16;5041555;28;20510;-78
2022/05/26 02:48:30;;;;;;;5.80;2.08;;;;;;;16.41;100.00;101333.53;5030930;28;20147;-79
2022/05/26 02:51:10;;;;;;;5.57;2.35;;;;;;;16.49;100.00;101355.38;5038095;28;20108;-78
2022/05/26 02:53:47;;;;;;;6.53;2.95;;;;;;;16.31;100.00;101352.03;5032666;28;20065;-77
2022/05/26 02:56:34;;;;;;;4.47;1.70;;;;;;;16.45;100.00;101353.84;5046158;28;20059;-77
2022/05/26 02:59:16;;;;;;;1.08;0.60;;;;;;;16.40;100.00;101357.09;5039000;28;20052;-78
2022/05/26 03:02:00;;;;;;;4.22;2.10;;;;;;;16.37;100.00;101355.13;5030145;28;20136;-77
2022/05/26 03:05:03;;;;;;;9.85;3.78;;;;;;;16.41;100.00;101359.47;5028660;28;20053;-77
2022/05/26 03:07:33;;;;;;;3.20;1.80;;;;;;;16.27;100.00;101368.03;5023534;28;20057;-78
2022/05/26 03:10:07;;;;;;;12.05;3.47;;;;;;;16.21;100.00;101355.75;5030083;28;20147;-77
2022/05/26 03:12:35;;;;;;;9.02;3.50;;;;;;;16.29;100.00;101362.00;5034487;28;20049;-77
2022/05/26 03:15:05;;;;;;;6.80;1.65;;;;;;;16.36;100.00;101351.53;5037283;28;20076;-78
2022/05/26 03:17:32;;;;;;;8.93;3.13;;;;;;;16.24;100.00;101351.34;5041655;28;20042;-77
2022/05/26 03:19:58;;;;;;;9.77;3.95;;;;;;;16.38;100.00;101351.13;5042929;28;20136;-77
2022/05/26 03:22:25;;;;;;;10.32;4.60;;;;;;;16.38;100.00;101357.50;5036488;28;20112;-77
2022/05/26 03:24:52;;;;;;;5.53;1.85;;;;;;;16.33;100.00;101357.19;5036837;28;20049;-77
2022/05/26 03:27:19;;;;;;;1.85;1.33;;;;;;;16.33;100.00;101351.59;5044837;28;20144;-77
2022/05/26 03:29:45;;;;;;;11.23;3.65;;;;;;;16.34;100.00;101362.38;5031061;28;20125;-78
2022/05/26 03:32:12;;;;;;;11.57;3.83;;;;;;;16.34;100.00;101364.34;5039756;28;20056;-77
2022/05/26 03:42:55;;;;;;;;;;;;;;;16.31;100.00;101367.97;5036743;28;20054;-78
2022/05/26 03:45:24;;;;;;;13.20;4.30;;;;;;;16.37;100.00;101374.69;5025856;28;19937;-78
2022/05/26 03:47:51;;;;;;;11.95;4.25;;;;;;;16.38;100.00;101371.47;5039763;28;20087;-77
2022/05/26 03:50:18;;;;;;;6.38;2.08;;;;;;;16.21;100.00;101371.72;5043909;28;20124;-78
2022/05/26 03:52:45;;;;;;;6.55;1.95;;;;;;;16.22;100.00;101378.88;5030474;28;20136;-78
2022/05/26 03:55:11;;;;;;;6.85;2.53;;;;;;;16.27;100.00;101378.41;5044614;28;20053;-78
2022/05/26 03:57:38;;;;;;;3.92;1.85;;;;;;;16.29;100.00;101387.16;5028943;28;20126;-78
2022/05/26 04:00:05;;;;;;;6.63;1.83;;;;;;;16.17;100.00;101391.31;5027577;28;20470;-77
2022/05/26 04:02:35;;;;;;;8.50;4.13;;;;;;;16.21;100.00;101386.47;5038475;28;20165;-78
2022/05/26 04:05:02;;;;;;;14.07;4.43;;;;;;;16.23;100.00;101398.00;5028335;28;20089;-79
2022/05/26 04:07:28;;;;;;;4.88;2.42;;;;;;;16.07;100.00;101413.78;5037514;28;20132;-78
2022/05/26 04:09:55;;;;;;;8.93;3.15;;;;;;;15.94;100.00;101410.75;5034532;28;20192;-77
2022/05/26 04:12:21;;;;;;;13.35;5.32;;;;;;;16.14;100.00;101417.28;5031254;28;20482;-77
2022/05/26 04:14:48;;;;;;;7.57;2.95;;;;;;;16.04;100.00;101409.84;5028132;28;20136;-78
2022/05/26 04:17:14;;;;;;;8.02;2.08;;;;;;;16.01;100.00;101415.44;5034800;28;20144;-77
2022/05/26 04:19:41;;;;;;;13.05;5.28;;;;;;;16.11;100.00;101414.53;5029613;28;20059;-77
2022/05/26 04:22:15;;;;;;;13.52;6.30;;;;;;;16.04;100.00;101406.25;5043932;28;20679;-76
2022/05/26 04:24:50;;;;;;;6.45;1.42;;;;;;;15.96;100.00;101410.34;5032463;28;20045;-77
2022/05/26 04:27:19;;;;;;;17.75;5.28;;;;;;;16.03;100.00;101415.84;5042150;28;20787;-77
2022/05/26 04:29:45;;;;;;;18.55;5.88;;;;;;;15.96;100.00;101416.69;5037736;28;20049;-77
2022/05/26 04:32:13;;;;;;;4.75;2.53;;;;;;;15.95;100.00;101419.91;5031376;28;20160;-78
2022/05/26 04:34:40;;;;;;;7.13;2.78;;;;;;;15.94;100.00;101423.91;5042358;28;20140;-77
2022/05/26 04:37:07;;;;;;;5.88;2.78;;;;;;;15.85;100.00;101423.59;5039234;28;20087;-79
2022/05/26 04:39:34;;;;;;;5.55;2.78;;;;;;;15.90;100.00;101423.16;5035859;28;20111;-77
2022/05/26 04:42:03;;;;;;;8.73;2.95;;;;;;;15.85;100.00;101431.97;5041183;28;20638;-77
2022/05/26 04:44:36;;;;;;;10.30;3.15;;;;;;;15.86;100.00;101430.78;5039177;28;20083;-77
2022/05/26 04:47:03;;;;;;;8.95;3.22;;;;;;;15.82;100.00;101430.81;5034853;28;20085;-77
2022/05/26 04:49:30;;;;;;;11.23;2.60;;;;;;;15.85;100.00;101437.56;5040446;28;20049;-78
2022/05/26 04:51:58;;;;;;;13.88;5.97;;;;;;;16.00;100.00;101439.75;5037676;28;20482;-77
2022/05/26 04:54:25;;;;;;;9.05;4.45;;;;;;;15.97;100.00;101437.84;5038930;28;20681;-75
2022/05/26 04:56:56;;;;;;;17.15;6.28;;;;;;;15.96;100.00;101438.25;5031064;28;20076;-79
2022/05/26 04:59:24;;;;;;;18.90;7.63;;;;;;;15.94;100.00;101449.03;5031729;28;20061;-78
2022/05/26 05:01:50;;;;;;;18.48;7.30;;;;;;;15.94;100.00;101444.25;5040473;28;20136;-77
2022/05/26 05:04:17;;;;;;;8.15;3.83;;;;;;;15.93;100.00;101445.44;5043905;28;20052;-77
2022/05/26 05:06:44;;;;;;;13.02;3.80;;;;;;;15.98;100.00;101442.19;5043237;28;20049;-78
2022/05/26 05:09:11;;;;;;;13.00;5.35;;;;;;;15.94;100.00;101443.44;5039240;28;20055;-79
2022/05/26 05:11:37;;;;;;;7.97;3.75;;;;;;;15.93;100.00;101450.25;5038305;28;20064;-78
2022/05/26 05:14:04;;;;;;;15.00;6.28;;;;;;;15.86;100.00;101448.31;5046209;28;20077;-77
2022/05/26 05:16:34;;;;;;;19.73;8.65;;;;;;;16.12;100.00;101444.00;5041019;28;20063;-78
2022/05/26 05:19:01;;;;;;;21.20;9.95;;;;;;;16.22;100.00;101457.06;5042639;28;20107;-78
2022/05/26 05:21:35;;;;;;;24.20;9.88;;;;;;;16.22;100.00;101465.44;5043589;28;20428;-78
2022/05/26 05:24:17;;;;;;;19.92;8.35;;;;;;;16.21;100.00;101469.44;5035164;28;20501;-78
2022/05/26 05:26:50;;;;;;;16.73;8.05;;;;;;;16.22;100.00;101474.59;5044428;28;20049;-78
2022/05/26 05:29:21;;;;;;;22.63;10.75;;;;;;;16.22;100.00;101479.41;5042027;28;20092;-77
2022/05/26 05:31:55;;;;;;;22.08;9.00;;;;;;;16.28;100.00;101472.94;5047208;28;20084;-78
2022/05/26 05:34:27;;;;;;;19.35;10.05;;;;;;;16.34;100.00;101481.66;5040902;28;20049;-78
2022/05/26 05:36:56;;;;;;;13.25;5.18;;;;;;;16.23;100.00;101487.34;5040957;28;20061;-77
2022/05/26 05:39:24;;;;;;;21.40;10.90;;;;;;;16.29;100.00;101485.69;5039527;28;20052;-78
2022/05/26 05:41:54;;;;;;;13.20;5.57;;;;;;;16.29;100.00;101488.47;5045604;28;20155;-78
2022/05/26 05:44:21;;;;;;;18.17;7.22;;;;;;;16.30;100.00;101489.28;5039242;28;20709;-79
2022/05/26 05:46:53;;;;;;;21.25;9.50;;;;;;;16.39;100.00;101495.13;5043959;28;20095;-77
2022/05/26 05:49:22;;;;;;;29.42;11.20;;;;;;;16.43;100.00;101499.50;5039126;28;20060;-78
2022/05/26 05:51:49;;;;;;;23.45;10.25;;;;;;;16.48;100.00;101498.25;5044755;28;20754;-78
2022/05/26 05:54:17;;;;;;;22.38;9.40;;;;;;;16.53;100.00;101506.97;5037139;28;20140;-77
2022/05/26 05:56:44;;;;;;;25.38;11.75;;;;;;;16.56;100.00;101511.72;5036970;28;20053;-78
2022/05/26 05:59:11;;;;;;;22.88;10.10;;;;;;;16.53;100.00;101509.75;5037956;28;20057;-78
2022/05/26 06:01:38;;;;;;;26.90;12.35;;;;;;;16.52;100.00;101510.97;5032455;28;20425;-77
2022/05/26 06:04:05;;;;;;;27.38;12.80;;;;;;;16.53;100.00;101517.34;5034449;28;20049;-81
2022/05/26 06:06:37;;;;;;;24.02;11.13;;;;;;;16.53;100.00;101522.91;5035889;28;20131;-80
2022/05/26 06:09:04;;;;;;;27.67;12.20;;;;;;;16.60;100.00;101528.44;5043606;28;20132;-81
2022/05/26 06:11:31;;;;;;;12.82;5.35;;;;;;;16.40;100.00;101527.47;5038168;28;20502;-79
2022/05/26 06:13:57;;;;;;;25.80;11.57;;;;;;;16.56;100.00;101522.09;5053390;28;20057;-80
2022/05/26 06:16:24;;;;;;;27.52;10.80;;;;;;;16.58;100.00;101520.47;5045805;28;20140;-81
2022/05/26 06:18:51;;;;;;;9.20;4.10;;;;;;;16.45;100.00;101515.84;5046576;28;20102;-80
2022/05/26 06:21:18;;;;;;;23.98;9.95;;;;;;;16.56;100.00;101524.88;5050132;28;20136;-81
2022/05/26 06:23:44;;;;;;;13.20;6.20;;;;;;;16.59;100.00;101532.44;5046170;28;20065;-80
2022/05/26 06:26:11;;;;;;;26.63;11.40;;;;;;;16.66;100.00;101537.91;5048263;28;20052;-80
2022/05/26 06:31:23;;;;;;;19.57;8.93;;;;;;;16.55;100.00;101537.28;5046338;28;20084;-81
2022/05/26 06:39:20;;;;;;;24.50;9.73;;;;;;;16.64;100.00;101534.78;5040115;28;20053;-81
2022/05/26 06:42:05;;;;;;;16.35;6.18;;;;;;;16.62;100.00;101551.16;5041668;28;20350;-81
2022/05/26 06:44:38;;;;;;;28.35;12.07;;;;;;;16.73;100.00;101543.41;5043176;28;20080;-79
2022/05/26 06:47:07;;;;;;;19.73;8.38;;;;;;;16.80;100.00;101560.09;5044522;28;20053;-80
2022/05/26 06:49:35;;;;;;;28.80;11.25;;;;;;;16.77;100.00;101549.78;5047351;28;20084;-81
2022/05/26 06:52:03;;;;;;;27.83;12.43;;;;;;;16.87;100.00;101554.44;5040088;28;20104;-80
2022/05/26 06:54:36;;;;;;;30.00;11.02;;;;;;;16.85;100.00;101563.25;5046163;28;20535;-81
2022/05/26 06:57:05;;;;;;;39.10;12.05;;;;;;;16.88;100.00;101558.81;5040138;28;20135;-82
2022/05/26 06:59:32;;;;;;;24.88;11.13;;;;;;;16.83;100.00;101562.84;5034860;28;20049;-80
2022/05/26 07:01:59;;;;;;;23.33;11.68;;;;;;;16.92;100.00;101568.72;5047392;28;20136;-80
2022/05/26 07:04:27;;;;;;;24.30;12.00;;;;;;;17.00;100.00;101564.63;5049891;28;20052;-81
2022/05/26 07:06:54;;;;;;;10.73;3.25;;;;;;;16.99;100.00;101573.41;5041988;28;20159;-76
2022/05/26 07:09:23;;;;;;;23.25;8.38;;;;;;;17.00;100.00;101564.63;5040004;28;20041;-76
2022/05/26 07:11:49;;;;;;;28.17;13.15;;;;;;;17.21;100.00;101574.72;5037792;28;20743;-76
2022/05/26 07:14:16;;;;;;;31.42;13.32;;;;;;;17.35;100.00;101563.31;5039278;28;20051;-79
2022/05/26 07:16:44;;;;;;;28.27;12.07;;;;;;;17.47;100.00;101571.13;5037466;28;20132;-77
2022/05/26 07:19:16;;;;;;;26.67;12.95;;;;;;;17.56;100.00;101574.19;5041382;28;20051;-76
2022/05/26 07:21:45;;;;;;;26.52;11.20;;;;;;;17.50;100.00;101564.69;5042599;28;20159;-76
2022/05/26 07:24:18;;;;;;;18.92;5.65;;;;;;;17.50;100.00;101570.28;5037621;28;20091;-76
2022/05/26 07:26:45;;;;;;;8.70;4.30;;;;;;;17.48;100.00;101581.91;5033866;28;20143;-75
2022/05/26 07:29:14;;;;;;;23.95;11.70;;;;;;;17.73;100.00;101575.91;5039191;28;20049;-75
2022/05/26 07:31:41;;;;;;;22.83;8.82;;;;;;;17.83;100.00;101583.34;5038536;28;20055;-76
2022/05/26 07:34:15;;;;;;;9.60;5.40;;;;;;;17.87;100.00;101582.06;5035620;28;20488;-76
2022/05/26 07:42:16;;;;;;;29.88;12.38;;;;;;;18.08;100.00;101592.06;5039490;28;20422;-77
2022/05/26 07:44:45;;;;;;;21.55;8.48;;;;;;;18.01;100.00;101589.41;5037749;28;20924;-76
2022/05/26 07:47:12;;;;;;;11.48;4.65;;;;;;;18.19;100.00;101584.25;5042890;28;20103;-76
2022/05/26 07:49:42;;;;;;;19.27;9.13;;;;;;;18.02;99.90;101593.00;5046080;28;20045;-74
2022/05/26 07:52:16;;;;;;;15.70;7.55;;;;;;;18.06;100.00;101591.72;5036942;28;20124;-76
2022/05/26 07:54:43;;;;;;;17.75;6.90;;;;;;;18.19;99.87;101603.88;5042857;28;20509;-77
2022/05/26 07:57:22;;;;;;;20.88;11.10;;;;;;;18.45;100.00;101594.59;5037561;28;20083;-76
2022/05/26 07:59:50;;;;;;;16.90;7.80;;;;;;;18.25;98.68;101593.00;5041449;28;20049;-75
2022/05/26 08:02:18;;;;;;;25.65;11.88;;;;;;;18.49;98.43;101603.72;5039542;28;20531;-76
2022/05/26 08:04:46;;;;;;;22.95;10.05;;;;;;;18.42;98.46;101608.72;5035889;28;20103;-76
2022/05/26 08:07:13;;;;;;;26.50;10.60;;;;;;;18.50;99.60;101604.53;5037986;28;20083;-75
2022/05/26 08:09:40;;;;;;;30.42;12.52;;;;;;;18.64;97.77;101607.06;5043222;28;20085;-76
2022/05/26 08:12:11;;;;;;;24.73;10.95;;;;;;;18.79;97.45;101611.94;5032660;28;20168;-75
2022/05/26 08:14:38;;;;;;;22.02;10.73;;;;;;;18.95;94.40;101609.19;5040820;28;20253;-78
2022/05/26 08:17:05;;;;;;;27.08;10.98;;;;;;;18.95;92.77;101606.41;5046909;28;20258;-76
2022/05/26 08:19:32;;;;;;;11.85;4.55;;;;;;;18.72;92.16;101628.91;5047687;28;20049;-76
2022/05/26 08:22:00;;;;;;;20.63;8.45;;;;;;;18.55;92.05;101624.44;5040599;28;20061;-75
2022/05/26 08:24:27;;;;;;;25.45;11.60;;;;;;;18.64;92.11;101621.88;5039252;28;20137;-76
2022/05/26 08:26:53;;;;;;;19.38;8.85;;;;;;;18.48;91.13;101630.19;5042330;28;20073;-77
2022/05/26 08:29:20;;;;;;;21.58;9.38;;;;;;;18.56;90.77;101623.22;5040582;28;20135;-76
2022/05/26 08:31:46;;;;;;;9.15;3.92;;;;;;;18.30;92.07;101640.91;5038641;28;20409;-74
2022/05/26 08:34:13;;;;;;;21.52;8.57;;;;;;;18.40;92.77;101639.97;5043787;28;20181;-76
2022/05/26 08:36:40;;;;;;;23.10;10.50;;;;;;;18.64;93.29;101641.50;5042756;28;20080;-76
2022/05/26 08:39:07;;;;;;;23.33;10.45;;;;;;;18.85;92.73;101643.88;5047570;28;20045;-76
2022/05/26 08:41:46;;;;;;;24.00;10.27;;;;;;;18.93;92.01;101642.50;5055881;28;20105;-78
2022/05/26 08:44:26;;;;;;;22.10;9.57;;;;;;;19.08;90.90;101640.19;5037542;28;20141;-76
2022/05/26 08:47:03;;;;;;;16.08;7.95;;;;;;;19.07;88.30;101647.78;5031940;28;20441;-76
2022/05/26 08:49:36;;;;;;;22.63;9.48;;;;;;;19.23;87.43;101656.28;5041297;28;20134;-77
2022/05/26 08:52:19;;;;;;;26.15;12.18;;;;;;;19.30;88.20;101653.34;5038804;28;20601;-76
2022/05/26 08:54:52;;;;;;;27.63;11.10;;;;;;;19.48;86.83;101650.91;5043107;28;20140;-76
2022/05/26 08:57:25;;;;;;;22.95;10.70;;;;;;;19.40;85.36;101663.53;5041152;28;20140;-76
2022/05/26 08:59:53;;;;;;;18.50;8.60;;;;;;;19.38;84.96;101654.78;5042280;28;20147;-78
2022/05/26 09:02:33;;;;;;;15.85;4.97;;;;;;;19.13;85.38;101662.91;5040202;28;20053;-75
2022/05/26 09:05:10;;;;;;;21.83;10.25;;;;;;;19.55;86.31;101662.00;5046271;28;20744;-77
2022/05/26 09:13:18;;;;;;;15.38;5.38;;;;;;;19.44;81.00;101669.09;5037282;28;20046;-75
2022/05/26 09:15:45;;;;;;;19.17;9.45;;;;;;;19.46;80.17;101664.63;5036924;28;20140;-78
2022/05/26 09:18:18;;;;;;;22.27;10.25;;;;;;;19.45;79.05;101674.25;5039294;28;20048;-76
2022/05/26 09:20:47;;;;;;;19.20;9.00;;;;;;;19.62;79.13;101661.03;5039140;28;20155;-76
2022/05/26 09:23:22;;;;;;;15.18;5.18;;;;;;;19.44;79.89;101672.66;5038337;28;20132;-78
2022/05/26 09:25:53;;;;;;;22.00;9.55;;;;;;;19.44;80.92;101674.69;5040382;28;20045;-75
2022/05/26 09:28:54;;;;;;;13.90;5.15;;;;;;;19.50;83.65;101678.53;5043059;28;20144;-73
2022/05/26 09:31:32;;;;;;;17.98;8.18;;;;;;;19.75;79.13;101679.56;5040490;28;20053;-76
2022/05/26 09:34:15;;;;;;;19.52;8.30;;;;;;;20.04;77.14;101672.03;5040005;28;20140;-77
2022/05/26 09:36:52;;;;;;;14.27;5.65;;;;;;;19.74;75.52;101678.00;5036309;28;20045;-76
2022/05/26 09:39:23;;;;;;;9.85;4.30;;;;;;;19.62;75.39;101689.91;5042233;28;20152;-75
2022/05/26 09:41:54;;;;;;;18.13;8.55;;;;;;;19.65;76.77;101674.97;5039693;28;20049;-76
2022/05/26 09:44:30;;;;;;;12.57;6.43;;;;;;;19.68;77.12;101682.53;5031871;28;20120;-75
2022/05/26 09:47:02;;;;;;;10.57;4.43;;;;;;;19.58;75.10;101685.59;5047601;28;20510;-74
2022/05/26 09:49:34;;;;;;;15.13;6.72;;;;;;;19.76;76.15;101680.34;5043550;28;21031;-75
2022/05/26 09:52:17;;;;;;;5.82;3.30;;;;;;;19.70;74.83;101688.53;5036315;28;20049;-74
2022/05/26 09:54:45;;;;;;;7.10;3.30;;;;;;;19.61;76.17;101693.94;5039630;28;20049;-73
2022/05/26 09:57:18;;;;;;;8.48;3.70;;;;;;;19.44;75.38;101692.31;5040726;28;20061;-76
2022/05/26 09:59:45;;;;;;;17.20;6.45;;;;;;;19.80;73.27;101693.09;5035867;28;20135;-77
2022/05/26 10:02:17;;;;;;;14.07;3.63;;;;;;;19.74;75.20;101702.47;5043888;28;20140;-77
2022/05/26 10:05:15;;;;;;;24.52;9.43;;;;;;;20.02;73.24;101696.19;5040453;28;20069;-75
2022/05/26 10:07:57;;;;;;;16.75;4.10;;;;;;;20.13;69.94;101694.72;5040958;28;20056;-77
2022/05/26 10:10:41;;;;;;;12.98;4.70;;;;;;;20.05;69.94;101698.91;5039270;28;20049;-77
2022/05/26 10:13:20;;;;;;;10.98;4.03;;;;;;;20.03;70.60;101700.56;5041053;28;20076;-76
2022/05/26 10:16:14;;;;;;;9.65;4.50;;;;;;;19.89;69.72;101684.88;5044434;28;20124;-76
2022/05/26 10:19:09;;;;;;;12.82;5.07;;;;;;;19.79;69.17;101697.13;5044015;28;20049;-75
2022/05/26 10:21:50;;;;;;;18.17;6.75;;;;;;;20.06;67.85;101700.50;5041260;28;20132;-73
2022/05/26 10:24:35;;;;;;;10.27;5.25;;;;;;;19.79;68.33;101704.75;5031072;28;20153;-70
2022/05/26 10:27:26;;;;;;;10.43;3.75;;;;;;;19.67;69.08;101723.06;5035890;28;20067;-76
2022/05/26 10:30:24;;;;;;;17.67;5.80;;;;;;;19.46;70.45;101717.94;5039827;28;20057;-76
2022/05/26 10:33:19;;;;;;;10.38;4.15;;;;;;;19.66;72.01;101703.84;5034812;28;20204;-76
2022/05/26 10:36:04;;;;;;;12.70;5.00;;;;;;;20.12;70.53;101717.66;5041892;28;20095;-76
2022/05/26 10:39:05;;;;;;;15.45;5.55;;;;;;;20.13;69.01;101703.16;5035217;28;20041;-76
2022/05/26 10:41:50;;;;;;;12.25;5.40;;;;;;;20.73;67.87;101698.78;5044555;28;20053;-76
2022/05/26 10:44:37;;;;;;;9.57;3.78;;;;;;;20.76;64.48;101703.53;5041935;28;20083;-75
2022/05/26 10:47:18;;;;;;;18.45;4.63;;;;;;;20.50;60.69;101710.25;5035614;28;20146;-76
2022/05/26 10:49:49;;;;;;;8.98;3.83;;;;;;;20.69;62.70;101711.34;5043566;28;20080;-75
2022/05/26 10:52:29;;;;;;;8.77;3.35;;;;;;;20.60;62.03;101716.81;5041235;28;20073;-75
2022/05/26 10:55:09;;;;;;;12.80;4.82;;;;;;;20.69;62.65;101714.16;5039861;28;20052;-77
2022/05/26 10:57:45;;;;;;;10.93;4.38;;;;;;;20.68;62.73;101712.59;5039296;28;20073;-76
2022/05/26 11:00:16;;;;;;;17.38;6.90;;;;;;;20.91;60.85;101720.78;5042521;28;20673;-75
2022/05/26 11:02:57;;;;;;;15.38;6.80;;;;;;;20.85;60.67;101714.91;5027867;28;20053;-74
2022/05/26 11:05:48;;;;;;;9.95;4.78;;;;;;;20.49;60.79;101725.53;5040883;28;20045;-73
2022/05/26 11:08:44;;;;;;;13.07;4.80;;;;;;;20.34;61.76;101716.66;5034841;28;20081;-76
2022/05/26 11:11:19;;;;;;;;;;;;;;;20.23;62.21;101727.41;5035743;28;20132;-75
2022/05/26 11:14:08;;;;;;;14.25;5.95;;;;;;;20.48;62.22;101731.59;5043129;28;20031;-75
2022/05/26 11:19:39;;;;;;;13.43;5.97;;;;;;;20.89;62.48;101724.03;5046798;28;20060;-75
2022/05/26 11:22:10;;;;;;;13.98;4.43;;;;;;;21.06;56.14;101722.78;5028308;28;20089;-76
2022/05/26 11:24:36;;;;;;;14.60;6.47;;;;;;;21.57;55.54;101724.47;5047389;28;20128;-75
2022/05/26 11:27:15;;;;;;;16.67;5.28;;;;;;;21.88;51.76;101716.31;5042882;28;20132;-75
2022/05/26 11:29:51;;;;;;;11.30;4.90;;;;;;;21.94;49.90;101726.56;5033727;28;20138;-78
2022/05/26 11:38:31;;;;;;;8.80;4.70;;;;;;;20.67;54.96;101725.06;5027368;28;20084;-78
2022/05/26 11:41:00;;;;;;;13.38;5.07;;;;;;;20.73;53.16;101726.91;5026873;28;20144;-77
2022/05/26 11:43:37;;;;;;;12.88;4.03;;;;;;;20.74;54.02;101724.84;5030884;28;20055;-77
2022/05/26 11:46:08;;;;;;;11.15;3.72;;;;;;;20.97;54.11;101719.84;5032667;28;20044;-77
2022/05/26 11:48:42;;;;;;;8.73;2.92;;;;;;;21.54;53.01;101714.13;5030309;28;20067;-78
2022/05/26 11:51:24;;;;;;;7.05;3.13;;;;;;;21.68;50.22;101722.13;5035600;28;20054;-75
2022/05/26 11:53:51;;;;;;;11.18;4.82;;;;;;;22.36;49.66;101708.25;5036697;28;20096;-77
2022/05/26 11:56:23;;;;;;;8.52;4.05;;;;;;;22.13;49.94;101710.63;5033279;28;21399;-77
2022/05/26 11:59:21;;;;;;;7.20;2.83;;;;;;;21.91;50.95;101715.41;5015487;28;20140;-78
2022/05/26 12:02:15;;;;;;;4.05;2.10;;;;;;;22.13;49.63;101714.25;5012077;28;20426;-77
2022/05/26 12:04:49;;;;;;;7.97;3.67;;;;;;;21.88;48.97;101707.84;5018268;28;20084;-76
2022/05/26 12:07:22;;;;;;;11.30;4.38;;;;;;;21.90;49.23;101719.47;5026282;28;20068;-77
2022/05/26 12:09:49;;;;;;;6.03;3.03;;;;;;;21.81;49.76;101733.44;5021844;28;20410;-77
2022/05/26 12:12:15;;;;;;;5.97;2.45;;;;;;;21.42;51.25;101725.34;5024702;28;20053;-79
2022/05/26 12:14:57;;;;;;;10.43;3.80;;;;;;;21.69;49.96;101712.44;5022085;28;20081;-79
2022/05/26 12:17:30;;;;;;;16.25;5.20;;;;;;;22.66;49.08;101709.66;5021683;28;20088;-78
2022/05/26 12:19:56;;;;;;;8.93;3.53;;;;;;;;;;5019575;28;20050;-78
2022/05/26 12:22:51;;;;;;;8.10;3.25;;;;;;;22.42;48.80;101716.91;5021627;28;20052;-78